createdAt,value
2022-11-23T00:02:21.790Z,46.86
2022-11-23T00:04:52.518Z,46.82
2022-11-23T00:07:23.147Z,46.94
2022-11-23T00:09:54.190Z,46.82
2022-11-23T00:12:24.782Z,46.88
2022-11-23T00:14:55.835Z,46.97
2022-11-23T00:17:26.472Z,47.07
2022-11-23T00:19:57.107Z,46.86
2022-11-23T00:22:27.854Z,46.93
2022-11-23T00:24:58.628Z,46.93
2022-11-23T00:27:29.729Z,47.04
2022-11-23T00:30:00.493Z,46.95
2022-11-23T00:32:32.089Z,46.92
2022-11-23T00:35:02.763Z,47.17
2022-11-23T00:37:33.397Z,47.13
2022-11-23T00:40:04.421Z,47.14
2022-11-23T00:42:38.222Z,47.02
2022-11-23T00:45:11.117Z,47.03
2022-11-23T00:47:41.980Z,47.17
2022-11-23T00:50:12.925Z,47.09
2022-11-23T00:52:43.578Z,47.16
2022-11-23T00:55:14.502Z,47.12
2022-11-23T00:57:45.542Z,47.26
2022-11-23T01:00:17.711Z,47.19
2022-11-23T01:02:48.450Z,47.11
2022-11-23T01:05:19.084Z,47.21
2022-11-23T01:07:49.935Z,47.18
2022-11-23T01:10:20.510Z,47.21
2022-11-23T01:12:51.195Z,47.14
2022-11-23T01:15:21.774Z,47.10
2022-11-23T01:17:52.985Z,47.25
2022-11-23T01:20:23.832Z,47.14
2022-11-23T01:22:55.724Z,47.17
2022-11-23T01:25:26.310Z,47.39
2022-11-23T01:27:57.369Z,47.35
2022-11-23T01:30:28.425Z,47.32
2022-11-23T01:32:59.288Z,47.32
2022-11-23T01:35:30.915Z,47.36
2022-11-23T01:38:01.608Z,47.43
2022-11-23T01:40:32.279Z,47.51
2022-11-23T01:43:03.993Z,47.29
2022-11-23T01:45:39.569Z,47.38
2022-11-23T01:48:16.228Z,47.31
2022-11-23T01:50:50.042Z,47.49
2022-11-23T01:53:20.391Z,47.43
2022-11-23T01:55:52.953Z,47.52
2022-11-23T01:58:26.714Z,47.45
2022-11-23T02:00:58.358Z,47.53
2022-11-23T02:03:33.582Z,47.56
2022-11-23T02:06:10.341Z,47.61
2022-11-23T02:08:42.294Z,47.85
2022-11-23T02:11:14.826Z,47.69
2022-11-23T02:13:48.812Z,47.74
2022-11-23T02:16:20.213Z,47.86
2022-11-23T02:18:53.313Z,47.95
2022-11-23T02:21:24.979Z,47.90
2022-11-23T02:24:01.332Z,48.00
2022-11-23T02:26:34.392Z,48.13
2022-11-23T02:29:09.082Z,48.34
2022-11-23T02:31:39.686Z,48.24
2022-11-23T02:34:10.433Z,48.36
2022-11-23T02:36:43.515Z,48.41
2022-11-23T02:39:18.400Z,48.35
2022-11-23T02:41:54.642Z,48.32
2022-11-23T02:44:40.955Z,48.27
2022-11-23T02:47:12.585Z,48.22
2022-11-23T02:49:44.340Z,48.34
2022-11-23T02:52:15.413Z,48.30
2022-11-23T02:54:46.208Z,48.24
2022-11-23T02:57:16.998Z,48.19
2022-11-23T02:59:47.874Z,48.33
2022-11-23T03:02:18.545Z,48.49
2022-11-23T03:04:49.212Z,48.36
2022-11-23T03:07:20.106Z,48.39
2022-11-23T03:09:50.732Z,48.55
2022-11-23T03:12:21.380Z,48.56
2022-11-23T03:14:52.054Z,48.67
2022-11-23T03:17:22.728Z,48.67
2022-11-23T03:19:53.418Z,48.79
2022-11-23T03:22:24.046Z,48.72
2022-11-23T03:24:54.734Z,48.71
2022-11-23T03:27:25.440Z,48.81
2022-11-23T03:29:56.060Z,48.68
2022-11-23T03:32:26.715Z,48.82
2022-11-23T03:34:57.446Z,48.62
2022-11-23T03:37:28.061Z,48.74
2022-11-23T03:39:58.932Z,48.74
2022-11-23T03:42:29.769Z,48.77
2022-11-23T03:45:00.632Z,48.77
2022-11-23T03:47:31.721Z,48.89
2022-11-23T03:50:02.350Z,48.81
2022-11-23T03:52:33.021Z,48.91
2022-11-23T03:55:03.695Z,48.85
2022-11-23T03:57:34.328Z,48.97
2022-11-23T04:00:05.637Z,49.01
2022-11-23T04:02:36.698Z,49.03
2022-11-23T04:05:08.878Z,48.99
2022-11-23T04:07:39.692Z,48.97
2022-11-23T04:10:11.855Z,48.98
2022-11-23T04:12:42.562Z,49.12
2022-11-23T04:15:13.902Z,49.18
2022-11-23T04:17:44.865Z,49.19
2022-11-23T04:20:16.578Z,49.21
2022-11-23T04:22:47.299Z,49.08
2022-11-23T04:25:18.941Z,49.11
2022-11-23T04:27:49.648Z,49.17
2022-11-23T04:30:20.764Z,49.23
2022-11-23T04:32:51.683Z,49.19
2022-11-23T04:35:22.836Z,49.22
2022-11-23T04:37:53.770Z,49.32
2022-11-23T04:40:24.714Z,49.19
2022-11-23T04:43:00.290Z,49.05
2022-11-23T04:45:32.279Z,49.07
2022-11-23T04:48:02.880Z,49.08
2022-11-23T04:50:34.317Z,49.13
2022-11-23T04:53:05.054Z,49.26
2022-11-23T04:55:35.679Z,49.27
2022-11-23T04:58:06.611Z,49.17
2022-11-23T05:00:37.884Z,49.26
2022-11-23T05:03:08.833Z,49.36
2022-11-23T05:05:42.320Z,49.33
2022-11-23T05:08:13.130Z,49.44
2022-11-23T05:10:44.724Z,49.52
2022-11-23T05:13:15.944Z,49.48
2022-11-23T05:15:46.559Z,49.51
2022-11-23T05:18:17.350Z,49.52
2022-11-23T05:20:48.577Z,49.57
2022-11-23T05:23:19.431Z,49.51
2022-11-23T05:25:50.380Z,49.44
2022-11-23T05:28:39.739Z,49.55
2022-11-23T05:31:11.588Z,49.48
2022-11-23T05:33:42.341Z,49.47
2022-11-23T05:36:14.240Z,49.40
2022-11-23T05:38:45.324Z,49.36
2022-11-23T05:41:15.929Z,49.35
2022-11-23T05:43:46.619Z,49.42
2022-11-23T05:46:17.607Z,49.33
2022-11-23T05:48:48.301Z,49.41
2022-11-23T05:51:19.039Z,49.46
2022-11-23T05:53:49.983Z,49.27
2022-11-23T05:56:20.682Z,49.21
2022-11-23T05:58:51.355Z,49.28
2022-11-23T06:01:21.991Z,49.17
2022-11-23T06:03:53.898Z,49.36
2022-11-23T06:06:24.796Z,49.25
2022-11-23T06:08:55.533Z,49.08
2022-11-23T06:11:26.156Z,49.22
2022-11-23T06:13:56.773Z,49.21
2022-11-23T06:16:27.427Z,49.06
2022-11-23T06:18:58.090Z,49.01
2022-11-23T06:21:28.814Z,49.09
2022-11-23T06:23:59.448Z,49.01
2022-11-23T06:26:30.493Z,48.98
2022-11-23T06:29:01.603Z,48.98
2022-11-23T06:31:32.435Z,48.98
2022-11-23T06:34:03.089Z,48.86
2022-11-23T06:36:33.852Z,48.91
2022-11-23T06:39:04.795Z,48.60
2022-11-23T06:41:35.533Z,48.60
2022-11-23T06:44:06.956Z,48.62
2022-11-23T06:46:37.726Z,48.60
2022-11-23T06:49:08.606Z,48.56
2022-11-23T06:51:39.301Z,48.47
2022-11-23T06:54:10.026Z,48.37
2022-11-23T06:56:40.712Z,48.41
2022-11-23T06:59:11.823Z,48.33
2022-11-23T07:01:42.618Z,48.35
2022-11-23T07:04:13.502Z,48.36
2022-11-23T07:06:44.901Z,48.16
2022-11-23T07:09:15.654Z,48.30
2022-11-23T07:11:46.308Z,48.22
2022-11-23T07:14:17.022Z,48.16
2022-11-23T07:16:47.841Z,48.25
2022-11-23T07:19:18.541Z,48.19
2022-11-23T07:21:49.518Z,48.41
2022-11-23T07:24:20.328Z,48.24
2022-11-23T07:26:51.266Z,48.32
2022-11-23T07:29:21.901Z,48.10
2022-11-23T07:31:52.948Z,48.08
2022-11-23T07:34:23.582Z,48.15
2022-11-23T07:36:56.813Z,48.21
2022-11-23T07:39:55.649Z,48.23
2022-11-23T07:42:33.554Z,48.25
2022-11-23T07:45:06.477Z,48.23
2022-11-23T07:47:37.695Z,48.12
2022-11-23T07:50:11.533Z,48.10
2022-11-23T07:52:41.023Z,48.11
2022-11-23T07:55:12.265Z,48.24
2022-11-23T07:57:42.873Z,48.14
2022-11-23T08:00:15.663Z,48.09
2022-11-23T08:03:11.527Z,48.08
2022-11-23T08:05:37.067Z,47.94
2022-11-23T08:08:08.305Z,47.68
2022-11-23T08:10:45.108Z,47.71
2022-11-23T08:13:17.933Z,47.69
2022-11-23T08:15:54.479Z,47.68
2022-11-23T08:18:26.391Z,47.50
2022-11-23T08:21:00.489Z,47.32
2022-11-23T08:23:31.307Z,47.42
2022-11-23T08:26:04.873Z,47.37
2022-11-23T08:28:39.937Z,47.26
2022-11-23T08:31:12.412Z,47.28
2022-11-23T08:33:43.809Z,47.34
2022-11-23T08:36:14.816Z,47.27
2022-11-23T08:38:45.505Z,47.17
2022-11-23T08:41:18.291Z,47.12
2022-11-23T08:43:49.049Z,47.13
2022-11-23T08:46:20.842Z,47.08
2022-11-23T08:48:51.598Z,47.10
2022-11-23T08:51:23.277Z,47.06
2022-11-23T08:53:54.043Z,47.11
2022-11-23T08:56:25.402Z,47.18
2022-11-23T08:58:56.115Z,47.29
2022-11-23T09:01:26.878Z,47.34
2022-11-23T09:03:57.643Z,47.33
2022-11-23T09:06:29.361Z,47.39
2022-11-23T09:09:00.143Z,47.52
2022-11-23T09:11:30.880Z,47.35
2022-11-23T09:14:01.824Z,47.37
2022-11-23T09:16:34.037Z,47.50
2022-11-23T09:19:06.427Z,47.46
2022-11-23T09:21:39.245Z,47.49
2022-11-23T09:24:10.836Z,47.55
2022-11-23T09:26:41.934Z,47.65
2022-11-23T09:29:12.771Z,47.61
2022-11-23T09:31:43.648Z,47.65
2022-11-23T09:34:15.198Z,47.72
2022-11-23T09:36:46.036Z,47.44
2022-11-23T09:39:17.081Z,47.32
2022-11-23T09:42:15.865Z,47.30
2022-11-23T09:45:00.971Z,47.23
2022-11-23T09:47:47.390Z,46.98
2022-11-23T09:50:27.876Z,47.08
2022-11-23T09:53:05.331Z,47.22
2022-11-23T09:55:42.209Z,47.05
2022-11-23T09:58:17.700Z,47.08
2022-11-23T10:00:52.743Z,47.10
2022-11-23T10:03:23.566Z,47.05
2022-11-23T10:06:06.649Z,46.91
2022-11-23T10:08:49.093Z,47.06
2022-11-23T10:11:36.814Z,46.99
2022-11-23T10:14:19.272Z,46.89
2022-11-23T10:17:00.294Z,46.95
2022-11-23T10:19:45.329Z,46.84
2022-11-23T10:22:22.617Z,46.85
2022-11-23T10:24:54.954Z,46.78
2022-11-23T10:27:27.098Z,46.74
2022-11-23T10:29:59.479Z,46.80
2022-11-23T10:32:36.097Z,46.70
2022-11-23T10:35:13.285Z,46.62
2022-11-23T10:37:44.472Z,46.67
2022-11-23T10:40:21.119Z,46.66
2022-11-23T10:42:56.586Z,46.58
2022-11-23T10:45:31.320Z,46.44
2022-11-23T10:48:02.565Z,46.49
2022-11-23T10:50:37.696Z,46.37
2022-11-23T10:53:23.586Z,46.39
2022-11-23T10:55:58.200Z,46.31
2022-11-23T10:58:31.386Z,46.27
2022-11-23T11:01:07.506Z,46.40
2022-11-23T11:03:38.716Z,46.28
2022-11-23T11:06:11.258Z,46.21
2022-11-23T11:08:53.327Z,45.90
2022-11-23T11:11:30.017Z,46.02
2022-11-23T11:14:16.343Z,45.89
2022-11-23T11:16:52.866Z,45.85
2022-11-23T11:19:30.845Z,45.82
2022-11-23T11:22:03.343Z,45.83
2022-11-23T11:24:38.379Z,45.78
2022-11-23T11:27:16.000Z,45.98
2022-11-23T11:29:52.935Z,46.11
2022-11-23T11:32:28.261Z,45.94
2022-11-23T11:35:09.444Z,45.90
2022-11-23T11:37:44.427Z,45.99
2022-11-23T11:40:22.779Z,46.02
2022-11-23T11:42:59.062Z,46.01
2022-11-23T11:45:34.303Z,46.06
2022-11-23T11:48:10.316Z,46.14
2022-11-23T11:50:49.267Z,46.25
2022-11-23T11:53:24.614Z,46.18
2022-11-23T11:56:00.054Z,46.08
2022-11-23T11:58:31.598Z,46.15
2022-11-23T12:01:10.041Z,46.18
2022-11-23T12:03:47.005Z,46.17
2022-11-23T12:06:26.781Z,46.22
2022-11-23T12:09:04.649Z,46.21
2022-11-23T12:11:36.718Z,46.12
2022-11-23T12:14:12.251Z,46.12
2022-11-23T12:17:16.955Z,46.04
2022-11-23T12:19:54.871Z,46.00
2022-11-23T12:22:37.532Z,45.91
2022-11-23T12:25:18.059Z,45.67
2022-11-23T12:28:02.264Z,45.70
2022-11-23T12:30:43.379Z,45.76
2022-11-23T12:33:34.905Z,45.62
2022-11-23T12:36:23.760Z,45.59
2022-11-23T12:39:02.669Z,45.61
2022-11-23T12:41:40.906Z,45.63
2022-11-23T12:44:38.648Z,45.65
2022-11-23T12:47:20.351Z,45.42
2022-11-23T12:49:55.898Z,45.37
2022-11-23T12:52:48.560Z,45.36
2022-11-23T12:55:25.271Z,45.47
2022-11-23T12:58:03.094Z,45.41
2022-11-23T13:00:39.001Z,45.35
2022-11-23T13:03:34.161Z,45.30
2022-11-23T13:06:24.916Z,45.39
2022-11-23T13:09:25.688Z,45.42
2022-11-23T13:12:12.228Z,45.36
2022-11-23T13:14:56.599Z,45.25
2022-11-23T13:17:38.775Z,45.29
2022-11-23T13:20:23.959Z,45.22
2022-11-23T13:22:56.625Z,45.32
2022-11-23T13:25:29.309Z,45.38
2022-11-23T13:28:02.770Z,45.15
2022-11-23T13:30:59.052Z,45.23
2022-11-23T13:33:38.386Z,45.36
2022-11-23T13:36:18.485Z,45.33
2022-11-23T13:38:51.087Z,45.27
2022-11-23T13:41:55.918Z,45.23
2022-11-23T13:44:29.519Z,45.19
2022-11-23T13:47:03.457Z,45.20
2022-11-23T13:49:39.012Z,45.31
2022-11-23T13:52:28.525Z,45.08
2022-11-23T13:55:09.424Z,45.30
2022-11-23T13:57:42.397Z,45.20
2022-11-23T14:00:51.003Z,45.42
2022-11-23T14:03:50.846Z,45.41
2022-11-23T14:06:28.433Z,45.32
2022-11-23T14:09:07.030Z,45.34
2022-11-23T14:11:49.702Z,45.25
2022-11-23T14:14:25.806Z,45.33
2022-11-23T14:17:23.848Z,45.29
2022-11-23T14:20:11.151Z,45.26
2022-11-23T14:22:55.778Z,45.30
2022-11-23T14:25:43.492Z,45.27
2022-11-23T14:28:39.588Z,45.25
2022-11-23T14:31:22.013Z,45.13
2022-11-23T14:34:00.344Z,45.15
2022-11-23T14:36:42.570Z,45.31
2022-11-23T14:40:04.373Z,45.18
2022-11-23T14:42:42.189Z,45.23
2022-11-23T14:45:16.531Z,45.23
2022-11-23T14:47:47.203Z,45.18
2022-11-23T14:50:29.892Z,45.34
2022-11-23T14:53:02.105Z,45.31
2022-11-23T14:55:33.519Z,45.22
2022-11-23T14:58:07.151Z,45.19
2022-11-23T15:00:40.579Z,45.29
2022-11-23T15:03:42.500Z,45.14
2022-11-23T15:06:14.069Z,45.28
2022-11-23T15:08:55.584Z,45.17
2022-11-23T15:11:29.448Z,45.43
2022-11-23T15:14:03.392Z,45.26
2022-11-23T15:16:42.772Z,45.15
2022-11-23T15:19:30.120Z,45.12
2022-11-23T15:22:01.272Z,45.10
2022-11-23T15:24:32.240Z,44.93
2022-11-23T15:27:12.604Z,44.82
2022-11-23T15:29:54.253Z,44.89
2022-11-23T15:32:32.551Z,44.81
2022-11-23T15:35:07.472Z,44.64
2022-11-23T15:37:43.989Z,44.60
2022-11-23T15:40:18.259Z,44.70
2022-11-23T15:42:51.489Z,44.56
2022-11-23T15:45:40.114Z,44.42
2022-11-23T15:48:16.747Z,44.69
2022-11-23T15:50:55.733Z,44.90
2022-11-23T15:53:29.184Z,45.10
2022-11-23T15:56:02.658Z,45.17
2022-11-23T15:58:35.251Z,45.37
2022-11-23T16:01:13.549Z,45.48
2022-11-23T16:03:53.665Z,45.59
2022-11-23T16:06:35.447Z,45.75
2022-11-23T16:09:49.720Z,45.60
2022-11-23T16:12:30.471Z,45.65
2022-11-23T16:15:23.365Z,45.42
2022-11-23T16:17:54.263Z,45.55
2022-11-23T16:20:26.746Z,45.35
2022-11-23T16:23:00.194Z,45.27
2022-11-23T16:25:33.657Z,45.49
2022-11-23T16:28:06.655Z,45.83
2022-11-23T16:30:41.565Z,45.80
2022-11-23T16:33:17.070Z,45.85
2022-11-23T16:35:48.550Z,46.07
2022-11-23T16:38:19.625Z,46.15
2022-11-23T16:40:50.584Z,46.03
2022-11-23T16:43:22.586Z,46.26
2022-11-23T16:45:55.730Z,46.20
2022-11-23T16:48:43.469Z,46.11
2022-11-23T16:51:15.465Z,46.03
2022-11-23T16:54:12.664Z,45.91
2022-11-23T16:56:39.325Z,45.78
2022-11-23T16:59:15.634Z,45.86
2022-11-23T17:01:53.940Z,45.85
2022-11-23T17:04:28.303Z,45.91
2022-11-23T17:06:59.211Z,45.77
2022-11-23T17:09:30.170Z,45.81
2022-11-23T17:12:01.455Z,45.76
2022-11-23T17:14:36.430Z,46.03
2022-11-23T17:17:10.955Z,45.92
2022-11-23T17:19:41.705Z,45.86
2022-11-23T17:22:12.544Z,45.72
2022-11-23T17:24:43.779Z,46.01
2022-11-23T17:27:18.277Z,46.01
2022-11-23T17:29:52.537Z,46.04
2022-11-23T17:32:23.229Z,46.16
2022-11-23T17:34:54.150Z,46.34
2022-11-23T17:37:26.329Z,46.31
2022-11-23T17:39:57.238Z,46.37
2022-11-23T17:42:28.164Z,46.40
2022-11-23T17:44:58.938Z,46.53
2022-11-23T17:47:32.313Z,46.59
2022-11-23T17:50:03.240Z,46.63
2022-11-23T17:52:34.492Z,46.69
2022-11-23T17:55:06.460Z,46.68
2022-11-23T17:57:37.196Z,46.84
2022-11-23T18:00:16.945Z,46.96
2022-11-23T18:02:48.034Z,46.92
2022-11-23T18:05:21.769Z,46.81
2022-11-23T18:07:53.001Z,46.84
2022-11-23T18:10:23.895Z,46.94
2022-11-23T18:12:54.935Z,46.92
2022-11-23T18:15:26.135Z,46.91
2022-11-23T18:18:00.238Z,46.88
2022-11-23T18:20:35.120Z,46.77
2022-11-23T18:23:06.352Z,46.67
2022-11-23T18:25:37.127Z,46.89
2022-11-23T18:28:08.270Z,46.86
2022-11-23T18:30:39.156Z,46.87
2022-11-23T18:33:10.040Z,46.94
2022-11-23T18:35:41.207Z,46.72
2022-11-23T18:38:11.940Z,46.83
2022-11-23T18:40:42.988Z,46.67
2022-11-23T18:43:21.892Z,46.71
2022-11-23T18:45:53.294Z,46.57
2022-11-23T18:48:24.489Z,46.57
2022-11-23T18:50:55.380Z,46.75
2022-11-23T18:53:26.628Z,46.64
2022-11-23T18:56:00.574Z,46.50
2022-11-23T18:58:34.864Z,46.64
2022-11-23T19:01:12.749Z,46.57
2022-11-23T19:03:44.661Z,46.70
2022-11-23T19:06:17.415Z,46.57
2022-11-23T19:08:50.088Z,46.58
2022-11-23T19:11:22.982Z,46.51
2022-11-23T19:13:55.013Z,46.43
2022-11-23T19:16:30.199Z,46.52
2022-11-23T19:19:03.161Z,46.52
2022-11-23T19:21:35.830Z,46.51
2022-11-23T19:24:07.680Z,46.57
2022-11-23T19:26:39.650Z,46.50
2022-11-23T19:29:10.597Z,46.46
2022-11-23T19:31:41.641Z,46.32
2022-11-23T19:34:12.710Z,46.39
2022-11-23T19:36:43.516Z,46.25
2022-11-23T19:39:14.557Z,46.35
2022-11-23T19:41:45.502Z,46.41
2022-11-23T19:44:16.546Z,46.44
2022-11-23T19:46:47.469Z,46.18
2022-11-23T19:49:18.654Z,46.36
2022-11-23T19:51:52.856Z,46.31
2022-11-23T19:54:37.203Z,46.26
2022-11-23T19:57:08.045Z,46.23
2022-11-23T19:59:39.195Z,46.23
2022-11-23T20:02:10.224Z,46.07
2022-11-23T20:04:43.672Z,46.22
2022-11-23T20:07:14.517Z,46.20
2022-11-23T20:09:45.523Z,46.23
2022-11-23T20:12:16.536Z,46.14
2022-11-23T20:14:47.404Z,46.17
2022-11-23T20:17:19.265Z,46.16
2022-11-23T20:19:50.092Z,46.16
2022-11-23T20:22:20.846Z,46.30
2022-11-23T20:24:52.412Z,46.01
2022-11-23T20:27:23.259Z,46.05
2022-11-23T20:29:53.976Z,46.20
2022-11-23T20:32:24.821Z,46.17
2022-11-23T20:34:55.560Z,46.06
2022-11-23T20:37:26.502Z,46.09
2022-11-23T20:39:57.327Z,46.20
2022-11-23T20:42:29.631Z,46.07
2022-11-23T20:45:00.563Z,46.10
2022-11-23T20:47:31.580Z,46.10
2022-11-23T20:50:02.369Z,46.26
2022-11-23T20:52:33.423Z,46.12
2022-11-23T20:55:04.807Z,46.29
2022-11-23T20:57:36.096Z,46.23
2022-11-23T21:00:08.611Z,46.23
2022-11-23T21:02:39.362Z,46.14
2022-11-23T21:05:11.342Z,46.18
2022-11-23T21:07:42.070Z,46.10
2022-11-23T21:10:33.418Z,46.15
2022-11-23T21:13:21.967Z,46.28
2022-11-23T21:15:52.958Z,46.23
2022-11-23T21:18:23.713Z,46.16
2022-11-23T21:20:57.965Z,46.17
2022-11-23T21:23:34.131Z,46.26
2022-11-23T21:26:07.561Z,46.16
2022-11-23T21:28:38.261Z,46.29
2022-11-23T21:31:10.476Z,46.09
2022-11-23T21:33:41.458Z,46.43
2022-11-23T21:36:13.263Z,46.35
2022-11-23T21:38:44.632Z,46.56
2022-11-23T21:41:18.378Z,46.48
2022-11-23T21:43:52.716Z,46.50
2022-11-23T21:46:23.717Z,46.65
2022-11-23T21:48:57.499Z,46.61
2022-11-23T21:51:28.720Z,46.54
2022-11-23T21:54:01.192Z,46.90
2022-11-23T21:56:32.696Z,46.86
2022-11-23T21:59:03.590Z,46.92
2022-11-23T22:01:36.860Z,47.02
2022-11-23T22:04:10.497Z,46.90
2022-11-23T22:06:40.620Z,47.03
2022-11-23T22:09:12.792Z,47.14
2022-11-23T22:11:45.404Z,47.08
2022-11-23T22:14:19.486Z,47.06
2022-11-23T22:16:51.217Z,47.16
2022-11-23T22:19:22.259Z,47.18
2022-11-23T22:21:53.084Z,47.25
2022-11-23T22:24:23.879Z,47.28
2022-11-23T22:26:54.615Z,47.30
2022-11-23T22:29:25.959Z,47.49
2022-11-23T22:31:56.727Z,47.38
2022-11-23T22:34:30.062Z,47.46
2022-11-23T22:37:04.521Z,47.51
2022-11-23T22:39:38.119Z,47.50
2022-11-23T22:42:09.117Z,47.41
2022-11-23T22:44:39.904Z,47.43
2022-11-23T22:47:10.641Z,47.40
2022-11-23T22:49:41.378Z,47.43
2022-11-23T22:52:12.424Z,47.52
2022-11-23T22:54:43.330Z,47.66
2022-11-23T22:57:14.207Z,47.73
2022-11-23T22:59:45.055Z,47.57
2022-11-23T23:02:15.807Z,47.70
2022-11-23T23:04:46.727Z,47.70
2022-11-23T23:07:17.476Z,47.75
2022-11-23T23:09:48.304Z,47.80
2022-11-23T23:12:18.976Z,47.68
2022-11-23T23:14:49.782Z,47.71
2022-11-23T23:17:20.471Z,47.83
2022-11-23T23:19:51.156Z,47.83
2022-11-23T23:22:21.894Z,47.85
2022-11-23T23:24:52.567Z,47.77
2022-11-23T23:27:23.586Z,47.87
2022-11-23T23:29:54.419Z,47.88
2022-11-23T23:32:25.094Z,47.73
2022-11-23T23:34:56.036Z,47.89
2022-11-23T23:37:26.832Z,47.86
2022-11-23T23:39:57.774Z,47.91
2022-11-23T23:42:28.838Z,47.94
2022-11-23T23:44:59.763Z,47.88
2022-11-23T23:47:30.698Z,48.04
2022-11-23T23:50:01.420Z,47.95
2022-11-23T23:52:32.188Z,47.91
2022-11-23T23:55:02.914Z,47.94
2022-11-23T23:57:33.952Z,48.06
